Chicago, IL

11:55 AM CST on February 23, 2019 (GMT -0600)
Leyden Township | | Change Station
Active Advisory: High Wind Watch

Elev 684 ft 41.93 °N, 87.90 °W | Updated 48 seconds ago

Light Rain
Light Rain Mist
33.62 °F
Feels Like 34 °F
N
2.7
Wind Variable Wind from ENE
Gusts 3.6 mph

Today
High -- | Low -- °F
--% Chance of Precip.
Yesterday
High -- | Low -- °F
Precip. -- in
Pressure 29.93 in
Visibility 2.0 miles
Clouds Overcast 500 ft
Windchill 34 °F
Dew Point 28 °F
Humidity 79%
Rainfall 0.16 in
Snow Depth Not available.
6:36 AM 5:34 PM
Waning Gibbous, 78% visible
METAR KORD 231751Z 05013KT 2SM -RA BR OVC005 01/00 A2991 RMK AO2 WSHFT 1717 PRESFR SLP133 P0008 60016 T00110000 10033 20011 58025
Pressure 29.93 in
Visibility 2.0 miles
Clouds Overcast 500 ft
Windchill 34 °F
Dew Point 28 °F
Humidity 79%
Rainfall 0.16 in
Snow Depth Not available.
6:36 AM 5:34 PM
Waning Gibbous, 78% visible
METAR KORD 231751Z 05013KT 2SM -RA BR OVC005 01/00 A2991 RMK AO2 WSHFT 1717 PRESFR SLP133 P0008 60016 T00110000 10033 20011 58025

Get Your Daily Forecast Email!

Thanks for signing up!

Be on the lookout for a verification email in your inbox.

You'll start receiving severe weather alerts in your inbox..

×

10-Day Weather Forecast

Almanac

Astronomy

Feb. 23, 2019 Rise Set
Actual Time
Civil Twilight
Nautical Twilight
Astronomical Twilight
Moon
Length of Visible Light
Length of Day
Tomorrow will be .
, % of the Moon is Illuminated

Today's Extremes

State Highs State Lows

Community

WunderPhotos

Category 6

Welcome to Category 6. This is the collective home for Weather Underground's featured writeups by Dr. Jeff Masters (right), Bob Henson (left), Chris Burt, and other regular contributors.

Nearby

Air Quality

  Air Quality AQ Index Pollutant
Not available.

Snow Depth

Station Depth Elevation

Earthquake Activity

City Distance Mag. Time & Date
Minimum magnitude displayed is 2.5.

Coastal Water Temperatures

Place Temperature

Stations

Nearby Weather Stations

Station Location Temp. Windchill Dew Point Humidity Wind Precip. Elev Updated Type
                   

Watches & Warnings

High Wind Watch
Issued: 12:12 PM EST Feb. 23, 2019 – National Weather Service

... High wind watch remains in effect from late tonight through
Sunday evening...

* timing... very strong west winds will develop late tonight and
early Sunday morning and persist into Sunday evening.

* Winds... sustained west winds of 35 to 40 mph with gusts of 50
to as high as 60 mph.

* Impacts... difficult travel, especially for high profile
vehicles on north to south roads. Unsecured objects outdoors
blown around. Tree limb damage and sporadic power outages
possible.

Precautionary/preparedness actions...

A high wind watch means there is the potential for a hazardous
high wind event. Sustained winds of at least 40 mph... or gusts of
58 mph or stronger may occur. Continue to monitor the latest
forecasts.



Krein